sensor_id;sensor_type;location;lat;lon;timestamp;P1;durP1;ratioP1;P2;durP2;ratioP2
17566;SDS011;8901;52.088;5.084;2022-10-15T00:01:19;19.63;;;16.23;;
17566;SDS011;8901;52.088;5.084;2022-10-15T00:03:46;20.57;;;17.63;;
17566;SDS011;8901;52.088;5.084;2022-10-15T00:06:13;21.03;;;16.40;;
17566;SDS011;8901;52.088;5.084;2022-10-15T00:08:45;18.90;;;15.87;;
17566;SDS011;8901;52.088;5.084;2022-10-15T00:16:53;23.70;;;20.83;;
17566;SDS011;8901;52.088;5.084;2022-10-15T00:22:28;19.97;;;17.90;;
17566;SDS011;8901;52.088;5.084;2022-10-15T00:31:05;21.67;;;19.17;;
17566;SDS011;8901;52.088;5.084;2022-10-15T00:33:42;21.70;;;18.47;;
17566;SDS011;8901;52.088;5.084;2022-10-15T00:36:28;21.90;;;19.30;;
17566;SDS011;8901;52.088;5.084;2022-10-15T00:42:09;24.20;;;20.73;;
17566;SDS011;8901;52.088;5.084;2022-10-15T00:51:09;21.67;;;19.40;;
17566;SDS011;8901;52.088;5.084;2022-10-15T00:56:57;27.40;;;23.00;;
17566;SDS011;8901;52.088;5.084;2022-10-15T01:05:34;27.33;;;23.03;;
17566;SDS011;8901;52.088;5.084;2022-10-15T01:08:06;25.17;;;22.57;;
17566;SDS011;8901;52.088;5.084;2022-10-15T01:10:54;27.57;;;23.33;;
17566;SDS011;8901;52.088;5.084;2022-10-15T01:13:42;29.03;;;25.37;;
17566;SDS011;8901;52.088;5.084;2022-10-15T01:19:21;22.63;;;19.93;;
17566;SDS011;8901;52.088;5.084;2022-10-15T01:28:31;28.17;;;24.00;;
17566;SDS011;8901;52.088;5.084;2022-10-15T01:31:19;26.87;;;22.47;;
17566;SDS011;8901;52.088;5.084;2022-10-15T01:37:25;28.47;;;19.87;;
17566;SDS011;8901;52.088;5.084;2022-10-15T01:46:16;25.80;;;21.00;;
17566;SDS011;8901;52.088;5.084;2022-10-15T01:51:34;28.67;;;25.63;;
17566;SDS011;8901;52.088;5.084;2022-10-15T01:54:21;24.90;;;20.80;;
17566;SDS011;8901;52.088;5.084;2022-10-15T02:00:27;26.67;;;23.47;;
17566;SDS011;8901;52.088;5.084;2022-10-15T02:06:04;26.17;;;22.70;;
17566;SDS011;8901;52.088;5.084;2022-10-15T02:14:36;83.33;;;53.77;;
17566;SDS011;8901;52.088;5.084;2022-10-15T02:17:09;36.07;;;27.60;;
17566;SDS011;8901;52.088;5.084;2022-10-15T02:22:38;26.40;;;23.27;;
17566;SDS011;8901;52.088;5.084;2022-10-15T02:25:12;31.17;;;24.10;;
17566;SDS011;8901;52.088;5.084;2022-10-15T02:27:43;27.40;;;22.23;;
17566;SDS011;8901;52.088;5.084;2022-10-15T02:30:12;25.40;;;22.53;;
17566;SDS011;8901;52.088;5.084;2022-10-15T02:32:40;27.00;;;21.07;;
17566;SDS011;8901;52.088;5.084;2022-10-15T02:35:10;23.40;;;20.27;;
17566;SDS011;8901;52.088;5.084;2022-10-15T02:37:37;24.27;;;20.97;;
17566;SDS011;8901;52.088;5.084;2022-10-15T02:40:09;27.13;;;24.00;;
17566;SDS011;8901;52.088;5.084;2022-10-15T02:42:37;23.27;;;19.47;;
17566;SDS011;8901;52.088;5.084;2022-10-15T02:45:04;21.20;;;18.73;;
17566;SDS011;8901;52.088;5.084;2022-10-15T02:47:32;23.13;;;20.57;;
17566;SDS011;8901;52.088;5.084;2022-10-15T02:49:59;25.77;;;23.07;;
17566;SDS011;8901;52.088;5.084;2022-10-15T02:52:27;24.60;;;21.20;;
17566;SDS011;8901;52.088;5.084;2022-10-15T02:54:54;22.87;;;20.17;;
17566;SDS011;8901;52.088;5.084;2022-10-15T03:00:24;21.00;;;18.23;;
17566;SDS011;8901;52.088;5.084;2022-10-15T03:05:56;22.37;;;18.47;;
17566;SDS011;8901;52.088;5.084;2022-10-15T03:08:24;21.87;;;18.23;;
17566;SDS011;8901;52.088;5.084;2022-10-15T03:10:51;21.83;;;19.03;;
17566;SDS011;8901;52.088;5.084;2022-10-15T03:13:18;22.37;;;19.17;;
17566;SDS011;8901;52.088;5.084;2022-10-15T03:15:45;18.57;;;16.20;;
17566;SDS011;8901;52.088;5.084;2022-10-15T03:18:11;22.77;;;20.37;;
17566;SDS011;8901;52.088;5.084;2022-10-15T03:20:38;18.70;;;16.60;;
17566;SDS011;8901;52.088;5.084;2022-10-15T03:23:18;22.97;;;19.57;;
17566;SDS011;8901;52.088;5.084;2022-10-15T03:25:46;24.87;;;22.27;;
17566;SDS011;8901;52.088;5.084;2022-10-15T03:28:13;18.17;;;16.23;;
17566;SDS011;8901;52.088;5.084;2022-10-15T03:30:40;21.00;;;18.83;;
17566;SDS011;8901;52.088;5.084;2022-10-15T03:33:08;21.73;;;19.13;;
17566;SDS011;8901;52.088;5.084;2022-10-15T03:35:34;23.13;;;20.80;;
17566;SDS011;8901;52.088;5.084;2022-10-15T03:38:01;22.17;;;19.87;;
17566;SDS011;8901;52.088;5.084;2022-10-15T03:40:28;22.13;;;19.80;;
17566;SDS011;8901;52.088;5.084;2022-10-15T03:42:56;20.77;;;18.57;;
17566;SDS011;8901;52.088;5.084;2022-10-15T03:45:23;23.27;;;21.00;;
17566;SDS011;8901;52.088;5.084;2022-10-15T03:47:51;20.60;;;18.53;;
17566;SDS011;8901;52.088;5.084;2022-10-15T03:50:18;24.07;;;20.30;;
17566;SDS011;8901;52.088;5.084;2022-10-15T03:52:44;19.83;;;16.93;;
17566;SDS011;8901;52.088;5.084;2022-10-15T03:55:11;24.53;;;20.87;;
17566;SDS011;8901;52.088;5.084;2022-10-15T03:57:38;20.87;;;18.77;;
17566;SDS011;8901;52.088;5.084;2022-10-15T04:00:09;23.13;;;20.70;;
17566;SDS011;8901;52.088;5.084;2022-10-15T04:02:38;22.90;;;20.70;;
17566;SDS011;8901;52.088;5.084;2022-10-15T04:05:04;22.67;;;20.27;;
17566;SDS011;8901;52.088;5.084;2022-10-15T04:07:32;20.87;;;18.60;;
17566;SDS011;8901;52.088;5.084;2022-10-15T04:09:58;23.03;;;20.67;;
17566;SDS011;8901;52.088;5.084;2022-10-15T04:12:25;21.40;;;19.20;;
17566;SDS011;8901;52.088;5.084;2022-10-15T04:14:52;21.73;;;19.50;;
17566;SDS011;8901;52.088;5.084;2022-10-15T04:17:20;22.37;;;20.20;;
17566;SDS011;8901;52.088;5.084;2022-10-15T04:19:47;19.20;;;17.20;;
17566;SDS011;8901;52.088;5.084;2022-10-15T04:22:15;23.00;;;20.70;;
17566;SDS011;8901;52.088;5.084;2022-10-15T04:24:44;23.27;;;19.67;;
17566;SDS011;8901;52.088;5.084;2022-10-15T04:27:11;22.60;;;20.20;;
17566;SDS011;8901;52.088;5.084;2022-10-15T04:29:39;21.83;;;18.57;;
17566;SDS011;8901;52.088;5.084;2022-10-15T04:32:06;19.37;;;17.00;;
17566;SDS011;8901;52.088;5.084;2022-10-15T04:34:37;18.37;;;16.47;;
17566;SDS011;8901;52.088;5.084;2022-10-15T04:37:04;19.67;;;16.17;;
17566;SDS011;8901;52.088;5.084;2022-10-15T04:39:31;16.73;;;15.13;;
17566;SDS011;8901;52.088;5.084;2022-10-15T04:41:58;19.93;;;17.23;;
17566;SDS011;8901;52.088;5.084;2022-10-15T04:44:25;20.97;;;18.90;;
17566;SDS011;8901;52.088;5.084;2022-10-15T04:46:52;22.00;;;19.60;;
17566;SDS011;8901;52.088;5.084;2022-10-15T04:49:19;21.73;;;19.57;;
17566;SDS011;8901;52.088;5.084;2022-10-15T04:51:47;22.37;;;19.27;;
17566;SDS011;8901;52.088;5.084;2022-10-15T04:54:14;18.03;;;16.27;;
17566;SDS011;8901;52.088;5.084;2022-10-15T05:05:19;21.60;;;19.43;;
17566;SDS011;8901;52.088;5.084;2022-10-15T05:07:48;20.60;;;18.40;;
17566;SDS011;8901;52.088;5.084;2022-10-15T05:10:15;22.60;;;18.70;;
17566;SDS011;8901;52.088;5.084;2022-10-15T05:12:41;19.57;;;17.40;;
17566;SDS011;8901;52.088;5.084;2022-10-15T05:15:08;22.23;;;19.93;;
17566;SDS011;8901;52.088;5.084;2022-10-15T05:17:37;22.23;;;20.10;;
17566;SDS011;8901;52.088;5.084;2022-10-15T05:20:05;22.47;;;20.17;;
17566;SDS011;8901;52.088;5.084;2022-10-15T05:22:32;24.83;;;22.17;;
17566;SDS011;8901;52.088;5.084;2022-10-15T05:25:01;31.50;;;25.23;;
17566;SDS011;8901;52.088;5.084;2022-10-15T05:27:28;22.97;;;19.77;;
17566;SDS011;8901;52.088;5.084;2022-10-15T05:29:54;29.93;;;23.13;;
17566;SDS011;8901;52.088;5.084;2022-10-15T05:32:21;26.07;;;22.30;;
17566;SDS011;8901;52.088;5.084;2022-10-15T05:34:48;27.87;;;22.77;;
17566;SDS011;8901;52.088;5.084;2022-10-15T05:37:15;32.53;;;27.60;;
17566;SDS011;8901;52.088;5.084;2022-10-15T05:39:42;30.27;;;25.50;;
17566;SDS011;8901;52.088;5.084;2022-10-15T05:42:10;30.33;;;24.43;;
17566;SDS011;8901;52.088;5.084;2022-10-15T05:44:37;35.30;;;28.43;;
17566;SDS011;8901;52.088;5.084;2022-10-15T05:47:04;26.77;;;21.33;;
17566;SDS011;8901;52.088;5.084;2022-10-15T05:49:35;31.03;;;25.17;;
17566;SDS011;8901;52.088;5.084;2022-10-15T05:52:03;35.87;;;26.27;;
17566;SDS011;8901;52.088;5.084;2022-10-15T05:54:29;27.10;;;21.97;;
17566;SDS011;8901;52.088;5.084;2022-10-15T05:56:56;32.03;;;27.27;;
17566;SDS011;8901;52.088;5.084;2022-10-15T05:59:25;33.73;;;26.53;;
17566;SDS011;8901;52.088;5.084;2022-10-15T06:01:51;37.03;;;29.43;;
17566;SDS011;8901;52.088;5.084;2022-10-15T06:04:18;33.43;;;24.90;;
17566;SDS011;8901;52.088;5.084;2022-10-15T06:06:45;43.10;;;31.63;;
17566;SDS011;8901;52.088;5.084;2022-10-15T06:09:12;31.43;;;22.43;;
17566;SDS011;8901;52.088;5.084;2022-10-15T06:11:39;43.73;;;30.80;;
17566;SDS011;8901;52.088;5.084;2022-10-15T06:14:06;45.30;;;32.80;;
17566;SDS011;8901;52.088;5.084;2022-10-15T06:16:34;45.47;;;32.33;;
17566;SDS011;8901;52.088;5.084;2022-10-15T06:19:02;45.40;;;31.40;;
17566;SDS011;8901;52.088;5.084;2022-10-15T06:21:29;39.90;;;28.90;;
17566;SDS011;8901;52.088;5.084;2022-10-15T06:23:56;41.40;;;31.47;;
17566;SDS011;8901;52.088;5.084;2022-10-15T06:26:23;44.17;;;32.60;;
17566;SDS011;8901;52.088;5.084;2022-10-15T06:28:50;45.17;;;32.60;;
17566;SDS011;8901;52.088;5.084;2022-10-15T06:31:16;43.43;;;31.80;;
17566;SDS011;8901;52.088;5.084;2022-10-15T06:33:45;38.07;;;28.93;;
17566;SDS011;8901;52.088;5.084;2022-10-15T06:36:13;37.30;;;28.07;;
17566;SDS011;8901;52.088;5.084;2022-10-15T06:38:40;36.90;;;28.17;;
17566;SDS011;8901;52.088;5.084;2022-10-15T06:41:08;40.60;;;29.60;;
17566;SDS011;8901;52.088;5.084;2022-10-15T06:43:36;38.33;;;29.30;;
17566;SDS011;8901;52.088;5.084;2022-10-15T06:46:04;37.23;;;28.10;;
17566;SDS011;8901;52.088;5.084;2022-10-15T06:48:31;45.63;;;33.03;;
17566;SDS011;8901;52.088;5.084;2022-10-15T06:51:00;43.07;;;31.80;;
17566;SDS011;8901;52.088;5.084;2022-10-15T06:53:27;42.17;;;31.50;;
17566;SDS011;8901;52.088;5.084;2022-10-15T06:55:55;39.57;;;29.87;;
17566;SDS011;8901;52.088;5.084;2022-10-15T06:58:23;37.97;;;26.63;;
17566;SDS011;8901;52.088;5.084;2022-10-15T07:00:50;39.23;;;30.67;;
17566;SDS011;8901;52.088;5.084;2022-10-15T07:03:17;38.43;;;26.27;;
17566;SDS011;8901;52.088;5.084;2022-10-15T07:05:44;45.37;;;31.53;;
17566;SDS011;8901;52.088;5.084;2022-10-15T07:08:13;38.37;;;27.37;;
17566;SDS011;8901;52.088;5.084;2022-10-15T07:10:39;32.00;;;24.27;;
17566;SDS011;8901;52.088;5.084;2022-10-15T07:13:06;36.53;;;26.80;;
17566;SDS011;8901;52.088;5.084;2022-10-15T07:15:33;33.90;;;27.03;;
17566;SDS011;8901;52.088;5.084;2022-10-15T07:18:00;36.10;;;26.37;;
17566;SDS011;8901;52.088;5.084;2022-10-15T07:20:28;34.83;;;26.90;;
17566;SDS011;8901;52.088;5.084;2022-10-15T07:22:56;40.93;;;29.50;;
17566;SDS011;8901;52.088;5.084;2022-10-15T07:25:25;35.10;;;25.87;;
17566;SDS011;8901;52.088;5.084;2022-10-15T07:27:53;36.13;;;27.83;;
17566;SDS011;8901;52.088;5.084;2022-10-15T07:30:20;34.37;;;27.13;;
17566;SDS011;8901;52.088;5.084;2022-10-15T07:32:47;32.13;;;25.67;;
17566;SDS011;8901;52.088;5.084;2022-10-15T07:35:14;29.33;;;21.63;;
17566;SDS011;8901;52.088;5.084;2022-10-15T07:37:41;28.10;;;22.73;;
17566;SDS011;8901;52.088;5.084;2022-10-15T07:40:08;31.40;;;25.40;;
17566;SDS011;8901;52.088;5.084;2022-10-15T07:42:37;27.10;;;21.63;;
17566;SDS011;8901;52.088;5.084;2022-10-15T07:45:05;24.17;;;19.37;;
17566;SDS011;8901;52.088;5.084;2022-10-15T07:47:32;22.33;;;19.57;;
17566;SDS011;8901;52.088;5.084;2022-10-15T07:49:59;22.97;;;20.37;;
17566;SDS011;8901;52.088;5.084;2022-10-15T07:52:26;22.40;;;16.97;;
17566;SDS011;8901;52.088;5.084;2022-10-15T07:54:53;27.47;;;19.07;;
17566;SDS011;8901;52.088;5.084;2022-10-15T07:57:20;19.97;;;17.23;;
17566;SDS011;8901;52.088;5.084;2022-10-15T07:59:48;17.00;;;15.20;;
17566;SDS011;8901;52.088;5.084;2022-10-15T08:02:15;18.67;;;15.43;;
17566;SDS011;8901;52.088;5.084;2022-10-15T08:04:43;19.83;;;16.57;;
17566;SDS011;8901;52.088;5.084;2022-10-15T08:07:10;19.27;;;17.27;;
17566;SDS011;8901;52.088;5.084;2022-10-15T08:09:36;17.60;;;15.80;;
17566;SDS011;8901;52.088;5.084;2022-10-15T08:12:04;18.57;;;16.53;;
17566;SDS011;8901;52.088;5.084;2022-10-15T08:14:31;18.33;;;15.30;;
17566;SDS011;8901;52.088;5.084;2022-10-15T08:17:00;18.17;;;16.20;;
17566;SDS011;8901;52.088;5.084;2022-10-15T08:19:27;18.50;;;16.57;;
17566;SDS011;8901;52.088;5.084;2022-10-15T08:21:54;19.50;;;17.43;;
17566;SDS011;8901;52.088;5.084;2022-10-15T08:24:21;18.50;;;16.47;;
17566;SDS011;8901;52.088;5.084;2022-10-15T08:26:48;17.23;;;15.40;;
17566;SDS011;8901;52.088;5.084;2022-10-15T08:29:15;18.50;;;16.60;;
17566;SDS011;8901;52.088;5.084;2022-10-15T08:31:42;19.17;;;17.17;;
17566;SDS011;8901;52.088;5.084;2022-10-15T08:34:10;17.73;;;15.83;;
17566;SDS011;8901;52.088;5.084;2022-10-15T08:36:37;16.37;;;14.77;;
17566;SDS011;8901;52.088;5.084;2022-10-15T08:39:04;15.63;;;13.33;;
17566;SDS011;8901;52.088;5.084;2022-10-15T08:41:34;17.07;;;15.27;;
17566;SDS011;8901;52.088;5.084;2022-10-15T08:44:05;15.83;;;14.13;;
17566;SDS011;8901;52.088;5.084;2022-10-15T08:46:38;14.87;;;13.33;;
17566;SDS011;8901;52.088;5.084;2022-10-15T08:49:12;15.47;;;13.87;;
17566;SDS011;8901;52.088;5.084;2022-10-15T08:51:48;16.00;;;14.20;;
17566;SDS011;8901;52.088;5.084;2022-10-15T08:54:19;14.40;;;12.97;;
17566;SDS011;8901;52.088;5.084;2022-10-15T08:56:47;14.33;;;12.93;;
17566;SDS011;8901;52.088;5.084;2022-10-15T08:59:23;15.67;;;14.07;;
17566;SDS011;8901;52.088;5.084;2022-10-15T09:01:58;15.23;;;13.63;;
17566;SDS011;8901;52.088;5.084;2022-10-15T09:04:30;20.37;;;13.73;;
17566;SDS011;8901;52.088;5.084;2022-10-15T09:07:12;13.67;;;12.37;;
17566;SDS011;8901;52.088;5.084;2022-10-15T09:09:42;14.07;;;12.63;;
17566;SDS011;8901;52.088;5.084;2022-10-15T09:12:17;13.53;;;12.23;;
17566;SDS011;8901;52.088;5.084;2022-10-15T09:14:58;13.43;;;12.13;;
17566;SDS011;8901;52.088;5.084;2022-10-15T09:17:25;14.03;;;12.63;;
17566;SDS011;8901;52.088;5.084;2022-10-15T09:19:58;13.23;;;11.93;;
17566;SDS011;8901;52.088;5.084;2022-10-15T09:22:30;12.10;;;10.90;;
17566;SDS011;8901;52.088;5.084;2022-10-15T09:25:01;11.53;;;10.43;;
17566;SDS011;8901;52.088;5.084;2022-10-15T09:27:39;11.50;;;10.40;;
17566;SDS011;8901;52.088;5.084;2022-10-15T09:30:14;11.17;;;10.07;;
17566;SDS011;8901;52.088;5.084;2022-10-15T09:32:49;10.83;;;9.73;;
17566;SDS011;8901;52.088;5.084;2022-10-15T09:35:23;11.27;;;10.17;;
17566;SDS011;8901;52.088;5.084;2022-10-15T09:37:56;10.77;;;9.70;;
17566;SDS011;8901;52.088;5.084;2022-10-15T09:40:34;10.53;;;9.53;;
17566;SDS011;8901;52.088;5.084;2022-10-15T09:43:08;11.43;;;10.33;;
17566;SDS011;8901;52.088;5.084;2022-10-15T09:45:37;11.13;;;10.03;;
17566;SDS011;8901;52.088;5.084;2022-10-15T09:48:05;11.67;;;10.57;;
17566;SDS011;8901;52.088;5.084;2022-10-15T09:50:43;11.17;;;10.00;;
17566;SDS011;8901;52.088;5.084;2022-10-15T09:53:21;14.20;;;10.70;;
17566;SDS011;8901;52.088;5.084;2022-10-15T09:55:57;11.50;;;10.40;;
17566;SDS011;8901;52.088;5.084;2022-10-15T09:58:36;13.97;;;10.50;;
17566;SDS011;8901;52.088;5.084;2022-10-15T10:01:05;12.57;;;11.30;;
17566;SDS011;8901;52.088;5.084;2022-10-15T10:03:41;12.27;;;10.73;;
17566;SDS011;8901;52.088;5.084;2022-10-15T10:06:10;11.90;;;10.70;;
17566;SDS011;8901;52.088;5.084;2022-10-15T10:08:39;12.00;;;10.27;;
17566;SDS011;8901;52.088;5.084;2022-10-15T10:11:12;13.30;;;11.37;;
17566;SDS011;8901;52.088;5.084;2022-10-15T10:13:40;12.77;;;11.47;;
17566;SDS011;8901;52.088;5.084;2022-10-15T10:16:11;11.57;;;10.37;;
17566;SDS011;8901;52.088;5.084;2022-10-15T10:18:40;11.63;;;10.43;;
17566;SDS011;8901;52.088;5.084;2022-10-15T10:21:21;12.30;;;10.97;;
17566;SDS011;8901;52.088;5.084;2022-10-15T10:23:50;12.03;;;10.73;;
17566;SDS011;8901;52.088;5.084;2022-10-15T10:26:17;12.10;;;10.80;;
17566;SDS011;8901;52.088;5.084;2022-10-15T10:28:46;10.60;;;9.60;;
17566;SDS011;8901;52.088;5.084;2022-10-15T10:34:40;12.77;;;11.43;;
17566;SDS011;8901;52.088;5.084;2022-10-15T10:37:10;10.80;;;9.80;;
17566;SDS011;8901;52.088;5.084;2022-10-15T10:39:37;11.40;;;10.30;;
17566;SDS011;8901;52.088;5.084;2022-10-15T10:42:05;11.37;;;10.13;;
17566;SDS011;8901;52.088;5.084;2022-10-15T10:44:48;10.93;;;9.90;;
17566;SDS011;8901;52.088;5.084;2022-10-15T10:47:15;13.40;;;11.20;;
17566;SDS011;8901;52.088;5.084;2022-10-15T10:49:45;10.27;;;9.13;;
17566;SDS011;8901;52.088;5.084;2022-10-15T10:52:22;10.97;;;9.73;;
17566;SDS011;8901;52.088;5.084;2022-10-15T10:54:52;11.23;;;10.03;;
17566;SDS011;8901;52.088;5.084;2022-10-15T10:57:25;10.63;;;9.53;;
17566;SDS011;8901;52.088;5.084;2022-10-15T11:00:04;10.20;;;9.10;;
17566;SDS011;8901;52.088;5.084;2022-10-15T11:02:32;10.00;;;9.00;;
17566;SDS011;8901;52.088;5.084;2022-10-15T11:07:39;9.97;;;8.87;;
17566;SDS011;8901;52.088;5.084;2022-10-15T11:10:20;9.63;;;8.73;;
17566;SDS011;8901;52.088;5.084;2022-10-15T11:12:57;8.30;;;7.60;;
17566;SDS011;8901;52.088;5.084;2022-10-15T11:15:38;8.23;;;7.43;;
17566;SDS011;8901;52.088;5.084;2022-10-15T11:18:17;9.20;;;8.30;;
17566;SDS011;8901;52.088;5.084;2022-10-15T11:20:54;9.87;;;8.97;;
17566;SDS011;8901;52.088;5.084;2022-10-15T11:30:07;8.13;;;7.43;;
17566;SDS011;8901;52.088;5.084;2022-10-15T11:32:46;8.90;;;8.00;;
17566;SDS011;8901;52.088;5.084;2022-10-15T11:35:21;7.47;;;6.77;;
17566;SDS011;8901;52.088;5.084;2022-10-15T11:37:59;7.00;;;6.40;;
17566;SDS011;8901;52.088;5.084;2022-10-15T11:40:45;6.40;;;5.80;;
17566;SDS011;8901;52.088;5.084;2022-10-15T11:43:25;6.50;;;5.90;;
17566;SDS011;8901;52.088;5.084;2022-10-15T11:46:07;7.50;;;6.80;;
17566;SDS011;8901;52.088;5.084;2022-10-15T11:48:50;8.40;;;6.27;;
17566;SDS011;8901;52.088;5.084;2022-10-15T11:51:27;6.80;;;6.20;;
17566;SDS011;8901;52.088;5.084;2022-10-15T11:54:04;6.50;;;5.93;;
17566;SDS011;8901;52.088;5.084;2022-10-15T11:56:51;6.87;;;6.27;;
17566;SDS011;8901;52.088;5.084;2022-10-15T12:02:00;6.73;;;6.03;;
17566;SDS011;8901;52.088;5.084;2022-10-15T12:04:32;5.90;;;5.40;;
17566;SDS011;8901;52.088;5.084;2022-10-15T12:07:05;6.33;;;5.77;;
17566;SDS011;8901;52.088;5.084;2022-10-15T12:09:40;6.70;;;6.10;;
17566;SDS011;8901;52.088;5.084;2022-10-15T12:12:15;6.23;;;5.73;;
17566;SDS011;8901;52.088;5.084;2022-10-15T12:14:50;6.40;;;5.90;;
17566;SDS011;8901;52.088;5.084;2022-10-15T12:17:33;6.23;;;5.20;;
17566;SDS011;8901;52.088;5.084;2022-10-15T12:20:07;6.57;;;5.97;;
17566;SDS011;8901;52.088;5.084;2022-10-15T12:22:39;6.57;;;5.90;;
17566;SDS011;8901;52.088;5.084;2022-10-15T12:25:39;6.93;;;6.23;;
17566;SDS011;8901;52.088;5.084;2022-10-15T12:28:14;7.80;;;6.13;;
17566;SDS011;8901;52.088;5.084;2022-10-15T12:30:52;6.50;;;6.00;;
17566;SDS011;8901;52.088;5.084;2022-10-15T12:33:24;6.30;;;5.70;;
17566;SDS011;8901;52.088;5.084;2022-10-15T12:35:57;6.13;;;5.63;;
17566;SDS011;8901;52.088;5.084;2022-10-15T12:38:28;6.63;;;6.13;;
17566;SDS011;8901;52.088;5.084;2022-10-15T12:44:07;7.33;;;6.63;;
17566;SDS011;8901;52.088;5.084;2022-10-15T12:46:43;5.57;;;5.17;;
17566;SDS011;8901;52.088;5.084;2022-10-15T12:55:26;6.87;;;6.10;;
17566;SDS011;8901;52.088;5.084;2022-10-15T12:58:05;7.80;;;7.10;;
17566;SDS011;8901;52.088;5.084;2022-10-15T13:00:47;7.00;;;6.30;;
17566;SDS011;8901;52.088;5.084;2022-10-15T13:03:19;6.60;;;6.10;;
17566;SDS011;8901;52.088;5.084;2022-10-15T13:05:57;6.80;;;6.30;;
17566;SDS011;8901;52.088;5.084;2022-10-15T13:08:50;6.67;;;6.17;;
17566;SDS011;8901;52.088;5.084;2022-10-15T13:11:20;6.90;;;6.40;;
17566;SDS011;8901;52.088;5.084;2022-10-15T13:13:51;6.90;;;6.30;;
17566;SDS011;8901;52.088;5.084;2022-10-15T13:16:25;7.07;;;6.43;;
17566;SDS011;8901;52.088;5.084;2022-10-15T13:21:48;8.07;;;7.00;;
17566;SDS011;8901;52.088;5.084;2022-10-15T13:24:18;8.67;;;7.47;;
17566;SDS011;8901;52.088;5.084;2022-10-15T13:26:47;6.60;;;6.00;;
17566;SDS011;8901;52.088;5.084;2022-10-15T13:29:15;6.53;;;6.03;;
17566;SDS011;8901;52.088;5.084;2022-10-15T13:31:44;7.50;;;6.80;;
17566;SDS011;8901;52.088;5.084;2022-10-15T13:34:20;6.43;;;5.83;;
17566;SDS011;8901;52.088;5.084;2022-10-15T13:36:57;6.53;;;5.90;;
17566;SDS011;8901;52.088;5.084;2022-10-15T13:39:27;6.90;;;6.27;;
17566;SDS011;8901;52.088;5.084;2022-10-15T13:44:33;7.53;;;6.07;;
17566;SDS011;8901;52.088;5.084;2022-10-15T13:47:16;7.13;;;6.43;;
17566;SDS011;8901;52.088;5.084;2022-10-15T13:49:50;5.27;;;4.50;;
17566;SDS011;8901;52.088;5.084;2022-10-15T13:52:18;5.33;;;4.83;;
17566;SDS011;8901;52.088;5.084;2022-10-15T13:54:45;5.40;;;4.93;;
17566;SDS011;8901;52.088;5.084;2022-10-15T13:57:13;5.47;;;4.97;;
17566;SDS011;8901;52.088;5.084;2022-10-15T13:59:42;6.03;;;5.30;;
17566;SDS011;8901;52.088;5.084;2022-10-15T14:02:11;5.43;;;4.37;;
17566;SDS011;8901;52.088;5.084;2022-10-15T14:04:40;5.23;;;4.83;;
17566;SDS011;8901;52.088;5.084;2022-10-15T14:07:20;4.63;;;4.23;;
17566;SDS011;8901;52.088;5.084;2022-10-15T14:09:48;4.30;;;3.90;;
17566;SDS011;8901;52.088;5.084;2022-10-15T14:12:15;5.33;;;4.30;;
17566;SDS011;8901;52.088;5.084;2022-10-15T14:14:43;5.60;;;4.43;;
17566;SDS011;8901;52.088;5.084;2022-10-15T14:17:19;4.40;;;4.00;;
17566;SDS011;8901;52.088;5.084;2022-10-15T14:19:49;4.93;;;4.30;;
17566;SDS011;8901;52.088;5.084;2022-10-15T14:22:22;3.97;;;3.67;;
17566;SDS011;8901;52.088;5.084;2022-10-15T14:24:51;4.90;;;4.40;;
17566;SDS011;8901;52.088;5.084;2022-10-15T14:27:19;4.20;;;3.90;;
17566;SDS011;8901;52.088;5.084;2022-10-15T14:29:48;4.53;;;4.13;;
17566;SDS011;8901;52.088;5.084;2022-10-15T14:32:20;6.07;;;4.03;;
17566;SDS011;8901;52.088;5.084;2022-10-15T14:34:51;5.60;;;3.77;;
17566;SDS011;8901;52.088;5.084;2022-10-15T14:37:31;4.23;;;3.83;;
17566;SDS011;8901;52.088;5.084;2022-10-15T14:40:13;3.63;;;3.20;;
17566;SDS011;8901;52.088;5.084;2022-10-15T14:42:43;3.60;;;3.10;;
17566;SDS011;8901;52.088;5.084;2022-10-15T14:45:13;3.17;;;2.87;;
17566;SDS011;8901;52.088;5.084;2022-10-15T14:47:46;9.37;;;6.40;;
17566;SDS011;8901;52.088;5.084;2022-10-15T14:50:16;123.23;;;92.53;;
17566;SDS011;8901;52.088;5.084;2022-10-15T14:52:47;100.23;;;72.80;;
17566;SDS011;8901;52.088;5.084;2022-10-15T14:55:18;51.70;;;33.40;;
17566;SDS011;8901;52.088;5.084;2022-10-15T14:57:57;25.10;;;13.70;;
17566;SDS011;8901;52.088;5.084;2022-10-15T15:00:27;12.93;;;5.60;;
17566;SDS011;8901;52.088;5.084;2022-10-15T15:02:57;5.60;;;3.17;;
17566;SDS011;8901;52.088;5.084;2022-10-15T15:05:27;9.77;;;3.90;;
17566;SDS011;8901;52.088;5.084;2022-10-15T15:07:56;4.20;;;3.07;;
17566;SDS011;8901;52.088;5.084;2022-10-15T15:10:24;8.33;;;3.27;;
17566;SDS011;8901;52.088;5.084;2022-10-15T15:12:52;7.53;;;4.70;;
17566;SDS011;8901;52.088;5.084;2022-10-15T15:15:21;6.40;;;3.30;;
17566;SDS011;8901;52.088;5.084;2022-10-15T15:17:50;4.93;;;3.90;;
17566;SDS011;8901;52.088;5.084;2022-10-15T15:20:17;3.77;;;3.00;;
17566;SDS011;8901;52.088;5.084;2022-10-15T15:22:45;6.40;;;3.80;;
17566;SDS011;8901;52.088;5.084;2022-10-15T15:25:16;5.67;;;3.60;;
17566;SDS011;8901;52.088;5.084;2022-10-15T15:27:45;10.30;;;4.67;;
17566;SDS011;8901;52.088;5.084;2022-10-15T15:30:18;4.80;;;3.30;;
17566;SDS011;8901;52.088;5.084;2022-10-15T15:32:46;3.60;;;3.30;;
17566;SDS011;8901;52.088;5.084;2022-10-15T15:35:17;5.93;;;3.50;;
17566;SDS011;8901;52.088;5.084;2022-10-15T15:37:46;3.50;;;3.20;;
17566;SDS011;8901;52.088;5.084;2022-10-15T15:40:13;4.00;;;3.53;;
17566;SDS011;8901;52.088;5.084;2022-10-15T15:42:41;4.00;;;3.60;;
17566;SDS011;8901;52.088;5.084;2022-10-15T15:45:19;8.07;;;4.53;;
17566;SDS011;8901;52.088;5.084;2022-10-15T15:47:48;7.10;;;5.27;;
17566;SDS011;8901;52.088;5.084;2022-10-15T15:50:16;6.43;;;4.87;;
17566;SDS011;8901;52.088;5.084;2022-10-15T15:52:43;4.67;;;4.20;;
17566;SDS011;8901;52.088;5.084;2022-10-15T15:55:11;6.63;;;4.07;;
17566;SDS011;8901;52.088;5.084;2022-10-15T15:57:38;5.23;;;3.50;;
17566;SDS011;8901;52.088;5.084;2022-10-15T16:00:08;4.17;;;3.87;;
17566;SDS011;8901;52.088;5.084;2022-10-15T16:02:36;4.37;;;4.00;;
17566;SDS011;8901;52.088;5.084;2022-10-15T16:05:03;6.50;;;3.90;;
17566;SDS011;8901;52.088;5.084;2022-10-15T16:07:31;4.47;;;3.60;;
17566;SDS011;8901;52.088;5.084;2022-10-15T16:09:58;7.13;;;4.20;;
17566;SDS011;8901;52.088;5.084;2022-10-15T16:12:26;4.30;;;3.87;;
17566;SDS011;8901;52.088;5.084;2022-10-15T16:14:54;5.07;;;4.30;;
17566;SDS011;8901;52.088;5.084;2022-10-15T16:17:22;4.03;;;3.63;;
17566;SDS011;8901;52.088;5.084;2022-10-15T16:19:49;4.60;;;4.07;;
17566;SDS011;8901;52.088;5.084;2022-10-15T16:22:16;7.80;;;5.10;;
17566;SDS011;8901;52.088;5.084;2022-10-15T16:24:42;6.17;;;4.77;;
17566;SDS011;8901;52.088;5.084;2022-10-15T16:27:09;10.53;;;5.57;;
17566;SDS011;8901;52.088;5.084;2022-10-15T16:29:36;5.87;;;5.30;;
17566;SDS011;8901;52.088;5.084;2022-10-15T16:32:03;5.67;;;3.87;;
17566;SDS011;8901;52.088;5.084;2022-10-15T16:34:31;7.17;;;3.77;;
17566;SDS011;8901;52.088;5.084;2022-10-15T16:36:58;4.83;;;3.80;;
17566;SDS011;8901;52.088;5.084;2022-10-15T16:39:25;6.57;;;3.90;;
17566;SDS011;8901;52.088;5.084;2022-10-15T16:41:52;5.03;;;3.97;;
17566;SDS011;8901;52.088;5.084;2022-10-15T16:44:20;6.13;;;3.70;;
17566;SDS011;8901;52.088;5.084;2022-10-15T16:46:47;6.57;;;3.77;;
17566;SDS011;8901;52.088;5.084;2022-10-15T16:49:14;6.73;;;3.60;;
17566;SDS011;8901;52.088;5.084;2022-10-15T16:51:42;7.17;;;4.10;;
17566;SDS011;8901;52.088;5.084;2022-10-15T16:54:10;6.73;;;3.90;;
17566;SDS011;8901;52.088;5.084;2022-10-15T16:56:46;4.93;;;3.63;;
17566;SDS011;8901;52.088;5.084;2022-10-15T16:59:13;5.43;;;4.00;;